sensor_id;sensor_type;location;lat;lon;timestamp;pressure;altitude;pressure_sealevel;temperature;humidity
80186;BME280;69904;52.122;5.422;2023-11-21T00:00:47;101118.44;;;7.47;89.81
80186;BME280;69904;52.122;5.422;2023-11-21T00:03:13;101123.13;;;7.45;89.54
80186;BME280;69904;52.122;5.422;2023-11-21T00:05:41;101127.19;;;7.41;89.52
80186;BME280;69904;52.122;5.422;2023-11-21T00:08:08;101132.72;;;7.40;89.47
80186;BME280;69904;52.122;5.422;2023-11-21T00:10:34;101130.03;;;7.40;89.96
80186;BME280;69904;52.122;5.422;2023-11-21T00:13:01;101138.94;;;7.40;90.05
80186;BME280;69904;52.122;5.422;2023-11-21T00:15:29;101137.91;;;7.41;90.01
80186;BME280;69904;52.122;5.422;2023-11-21T00:17:55;101136.25;;;7.40;90.29
80186;BME280;69904;52.122;5.422;2023-11-21T00:20:22;101131.72;;;7.41;90.25
80186;BME280;69904;52.122;5.422;2023-11-21T00:22:48;101135.41;;;7.40;89.75
80186;BME280;69904;52.122;5.422;2023-11-21T00:25:15;101135.56;;;7.38;90.30
80186;BME280;69904;52.122;5.422;2023-11-21T00:27:43;101133.88;;;7.37;90.08
80186;BME280;69904;52.122;5.422;2023-11-21T00:30:11;101144.63;;;7.37;89.84
80186;BME280;69904;52.122;5.422;2023-11-21T00:32:37;101142.97;;;7.36;90.01
80186;BME280;69904;52.122;5.422;2023-11-21T00:35:04;101146.81;;;7.34;89.50
80186;BME280;69904;52.122;5.422;2023-11-21T00:37:32;101139.59;;;7.34;89.73
80186;BME280;69904;52.122;5.422;2023-11-21T00:39:58;101140.59;;;7.33;89.52
80186;BME280;69904;52.122;5.422;2023-11-21T00:42:25;101137.25;;;7.31;89.73
80186;BME280;69904;52.122;5.422;2023-11-21T00:44:51;101144.47;;;7.31;89.87
80186;BME280;69904;52.122;5.422;2023-11-21T00:47:17;101146.47;;;7.29;89.95
80186;BME280;69904;52.122;5.422;2023-11-21T00:49:44;101157.38;;;7.27;89.61
80186;BME280;69904;52.122;5.422;2023-11-21T00:52:11;101150.50;;;7.25;89.49
80186;BME280;69904;52.122;5.422;2023-11-21T00:54:37;101149.84;;;7.23;90.19
80186;BME280;69904;52.122;5.422;2023-11-21T00:57:04;101157.88;;;7.23;89.90
80186;BME280;69904;52.122;5.422;2023-11-21T00:59:30;101155.41;;;7.21;89.42
80186;BME280;69904;52.122;5.422;2023-11-21T01:01:57;101158.06;;;7.21;89.81
80186;BME280;69904;52.122;5.422;2023-11-21T01:04:27;101163.59;;;7.19;89.98
80186;BME280;69904;52.122;5.422;2023-11-21T01:06:54;101169.28;;;7.16;89.81
80186;BME280;69904;52.122;5.422;2023-11-21T01:09:20;101169.47;;;7.15;90.05
80186;BME280;69904;52.122;5.422;2023-11-21T01:11:46;101173.31;;;7.12;89.89
80186;BME280;69904;52.122;5.422;2023-11-21T01:14:13;101179.38;;;7.14;90.18
80186;BME280;69904;52.122;5.422;2023-11-21T01:16:40;101179.38;;;7.14;89.85
80186;BME280;69904;52.122;5.422;2023-11-21T01:19:06;101183.75;;;7.15;90.15
80186;BME280;69904;52.122;5.422;2023-11-21T01:21:33;101181.06;;;7.15;90.09
80186;BME280;69904;52.122;5.422;2023-11-21T01:24:00;101184.91;;;7.13;89.74
80186;BME280;69904;52.122;5.422;2023-11-21T01:26:26;101176.69;;;7.14;90.20
80186;BME280;69904;52.122;5.422;2023-11-21T01:28:53;101170.63;;;7.12;89.97
80186;BME280;69904;52.122;5.422;2023-11-21T01:31:19;101171.81;;;7.10;89.75
80186;BME280;69904;52.122;5.422;2023-11-21T01:33:46;101176.34;;;7.09;90.16
80186;BME280;69904;52.122;5.422;2023-11-21T01:36:13;101175.81;;;7.06;89.83
80186;BME280;69904;52.122;5.422;2023-11-21T01:38:40;101183.03;;;7.05;90.05
80186;BME280;69904;52.122;5.422;2023-11-21T01:41:06;101181.03;;;7.07;90.55
80186;BME280;69904;52.122;5.422;2023-11-21T01:43:32;101186.41;;;7.07;90.26
80186;BME280;69904;52.122;5.422;2023-11-21T01:46:00;101182.72;;;7.08;90.57
80186;BME280;69904;52.122;5.422;2023-11-21T01:48:27;101185.25;;;7.10;90.16
80186;BME280;69904;52.122;5.422;2023-11-21T01:50:54;101186.09;;;7.10;90.09
80186;BME280;69904;52.122;5.422;2023-11-21T01:53:20;101197.81;;;7.09;89.57
80186;BME280;69904;52.122;5.422;2023-11-21T01:55:47;101196.81;;;7.10;90.45
80186;BME280;69904;52.122;5.422;2023-11-21T01:58:13;101194.31;;;7.09;90.59
80186;BME280;69904;52.122;5.422;2023-11-21T02:00:40;101192.28;;;7.11;90.33
80186;BME280;69904;52.122;5.422;2023-11-21T02:03:07;101195.78;;;7.11;90.58
80186;BME280;69904;52.122;5.422;2023-11-21T02:05:34;101195.63;;;7.13;90.53
80186;BME280;69904;52.122;5.422;2023-11-21T02:08:00;101199.00;;;7.15;90.61
80186;BME280;69904;52.122;5.422;2023-11-21T02:10:28;101214.75;;;7.18;90.72
80186;BME280;69904;52.122;5.422;2023-11-21T02:12:57;101219.13;;;7.19;90.62
80186;BME280;69904;52.122;5.422;2023-11-21T02:15:24;101225.00;;;7.23;90.73
80186;BME280;69904;52.122;5.422;2023-11-21T02:17:55;101227.53;;;7.24;90.87
80186;BME280;69904;52.122;5.422;2023-11-21T02:20:22;101233.59;;;7.26;90.68
80186;BME280;69904;52.122;5.422;2023-11-21T02:22:52;101232.53;;;7.27;90.82
80186;BME280;69904;52.122;5.422;2023-11-21T02:25:28;101233.06;;;7.31;91.11
80186;BME280;69904;52.122;5.422;2023-11-21T02:27:56;101228.53;;;7.31;90.99
80186;BME280;69904;52.122;5.422;2023-11-21T02:30:24;101233.72;;;7.33;91.35
80186;BME280;69904;52.122;5.422;2023-11-21T02:32:59;101232.56;;;7.35;91.46
80186;BME280;69904;52.122;5.422;2023-11-21T02:35:25;101232.56;;;7.35;91.41
80186;BME280;69904;52.122;5.422;2023-11-21T02:37:53;101242.31;;;7.36;91.72
80186;BME280;69904;52.122;5.422;2023-11-21T02:40:20;101240.28;;;7.38;91.66
80186;BME280;69904;52.122;5.422;2023-11-21T02:42:47;101235.75;;;7.39;91.75
80186;BME280;69904;52.122;5.422;2023-11-21T02:45:14;101240.13;;;7.40;91.42
80186;BME280;69904;52.122;5.422;2023-11-21T02:47:44;101250.00;;;7.39;91.85
80186;BME280;69904;52.122;5.422;2023-11-21T02:50:11;101239.13;;;7.41;91.69
80186;BME280;69904;52.122;5.422;2023-11-21T02:52:37;101237.94;;;7.43;91.55
80186;BME280;69904;52.122;5.422;2023-11-21T02:55:05;101246.66;;;7.45;91.75
80186;BME280;69904;52.122;5.422;2023-11-21T02:57:33;101241.13;;;7.47;91.62
80186;BME280;69904;52.122;5.422;2023-11-21T02:59:59;101238.44;;;7.47;91.76
80186;BME280;69904;52.122;5.422;2023-11-21T03:02:26;101240.94;;;7.48;91.94
80186;BME280;69904;52.122;5.422;2023-11-21T03:04:53;101236.41;;;7.49;92.02
80186;BME280;69904;52.122;5.422;2023-11-21T03:07:19;101243.47;;;7.50;92.10
80186;BME280;69904;52.122;5.422;2023-11-21T03:09:46;101246.00;;;7.51;92.33
80186;BME280;69904;52.122;5.422;2023-11-21T03:12:12;101244.81;;;7.54;92.15
80186;BME280;69904;52.122;5.422;2023-11-21T03:14:39;101236.75;;;7.54;92.61
80186;BME280;69904;52.122;5.422;2023-11-21T03:17:06;101227.03;;;7.53;92.41
80186;BME280;69904;52.122;5.422;2023-11-21T03:19:36;101243.31;;;7.51;92.87
80186;BME280;69904;52.122;5.422;2023-11-21T03:22:03;101243.16;;;7.53;93.01
80186;BME280;69904;52.122;5.422;2023-11-21T03:24:30;101250.03;;;7.55;92.94
80186;BME280;69904;52.122;5.422;2023-11-21T03:26:56;101241.81;;;7.57;93.22
80186;BME280;69904;52.122;5.422;2023-11-21T03:29:23;101244.34;;;7.58;93.21
80186;BME280;69904;52.122;5.422;2023-11-21T03:31:49;101237.28;;;7.57;93.07
80186;BME280;69904;52.122;5.422;2023-11-21T03:34:23;101244.66;;;7.55;93.47
80186;BME280;69904;52.122;5.422;2023-11-21T03:36:49;101245.00;;;7.52;93.57
80186;BME280;69904;52.122;5.422;2023-11-21T03:39:16;101255.91;;;7.51;93.23
80186;BME280;69904;52.122;5.422;2023-11-21T03:41:42;101253.53;;;7.48;93.62
80186;BME280;69904;52.122;5.422;2023-11-21T03:44:08;101260.44;;;7.50;93.59
80186;BME280;69904;52.122;5.422;2023-11-21T03:46:35;101250.19;;;7.54;93.68
80186;BME280;69904;52.122;5.422;2023-11-21T03:49:01;101259.59;;;7.58;94.20
80186;BME280;69904;52.122;5.422;2023-11-21T03:51:28;101254.03;;;7.59;94.06
80186;BME280;69904;52.122;5.422;2023-11-21T03:53:54;101262.78;;;7.61;93.74
80186;BME280;69904;52.122;5.422;2023-11-21T03:56:21;101265.13;;;7.65;94.18
80186;BME280;69904;52.122;5.422;2023-11-21T03:58:50;101267.66;;;7.66;93.99
80186;BME280;69904;52.122;5.422;2023-11-21T04:01:21;101271.00;;;7.68;94.14
80186;BME280;69904;52.122;5.422;2023-11-21T04:03:49;101272.50;;;7.71;94.10
80186;BME280;69904;52.122;5.422;2023-11-21T04:06:17;101279.56;;;7.72;94.12
80186;BME280;69904;52.122;5.422;2023-11-21T04:08:44;101278.41;;;7.74;94.16
80186;BME280;69904;52.122;5.422;2023-11-21T04:11:12;101275.72;;;7.74;94.17
80186;BME280;69904;52.122;5.422;2023-11-21T04:13:39;101278.56;;;7.73;94.18
80186;BME280;69904;52.122;5.422;2023-11-21T04:16:07;101286.63;;;7.73;94.57
80186;BME280;69904;52.122;5.422;2023-11-21T04:18:36;101296.38;;;7.74;94.20
80186;BME280;69904;52.122;5.422;2023-11-21T04:21:04;101295.34;;;7.75;94.23
80186;BME280;69904;52.122;5.422;2023-11-21T04:23:31;101297.88;;;7.76;94.78
80186;BME280;69904;52.122;5.422;2023-11-21T04:25:58;101295.03;;;7.78;94.67
80186;BME280;69904;52.122;5.422;2023-11-21T04:28:25;101302.91;;;7.79;94.59
80186;BME280;69904;52.122;5.422;2023-11-21T04:30:51;101306.44;;;7.80;94.75
80186;BME280;69904;52.122;5.422;2023-11-21T04:33:18;101310.63;;;7.82;94.64
80186;BME280;69904;52.122;5.422;2023-11-21T04:35:45;101308.94;;;7.81;94.65
80186;BME280;69904;52.122;5.422;2023-11-21T04:38:12;101314.16;;;7.83;94.88
80186;BME280;69904;52.122;5.422;2023-11-21T04:40:38;101315.84;;;7.84;94.90
80186;BME280;69904;52.122;5.422;2023-11-21T04:43:05;101324.56;;;7.86;94.93
80186;BME280;69904;52.122;5.422;2023-11-21T04:45:31;101322.72;;;7.86;94.67
80186;BME280;69904;52.122;5.422;2023-11-21T04:47:58;101331.63;;;7.87;94.60
80186;BME280;69904;52.122;5.422;2023-11-21T04:50:25;101332.47;;;7.87;94.92
80186;BME280;69904;52.122;5.422;2023-11-21T04:52:53;101331.63;;;7.87;95.21
80186;BME280;69904;52.122;5.422;2023-11-21T04:55:20;101343.22;;;7.87;94.70
80186;BME280;69904;52.122;5.422;2023-11-21T04:57:47;101335.31;;;7.86;94.69
80186;BME280;69904;52.122;5.422;2023-11-21T05:00:13;101324.56;;;7.86;94.84
80186;BME280;69904;52.122;5.422;2023-11-21T05:02:40;101321.53;;;7.81;94.92
80186;BME280;69904;52.122;5.422;2023-11-21T05:05:08;101340.34;;;7.81;94.87
80186;BME280;69904;52.122;5.422;2023-11-21T05:07:36;101344.56;;;7.83;95.16
80186;BME280;69904;52.122;5.422;2023-11-21T05:10:06;101342.72;;;7.84;95.50
80186;BME280;69904;52.122;5.422;2023-11-21T05:12:41;101340.19;;;7.82;95.65
80186;BME280;69904;52.122;5.422;2023-11-21T05:15:08;101350.78;;;7.84;95.53
80186;BME280;69904;52.122;5.422;2023-11-21T05:17:39;101348.25;;;7.82;95.68
80186;BME280;69904;52.122;5.422;2023-11-21T05:20:10;101348.09;;;7.84;95.95
80186;BME280;69904;52.122;5.422;2023-11-21T05:22:37;101356.81;;;7.86;96.03
80186;BME280;69904;52.122;5.422;2023-11-21T05:25:05;101361.53;;;7.84;95.86
80186;BME280;69904;52.122;5.422;2023-11-21T05:27:34;101354.31;;;7.84;95.78
80186;BME280;69904;52.122;5.422;2023-11-21T05:30:05;101355.81;;;7.87;95.85
80186;BME280;69904;52.122;5.422;2023-11-21T05:32:33;101365.56;;;7.88;96.31
80186;BME280;69904;52.122;5.422;2023-11-21T05:35:00;101360.19;;;7.88;96.27
80186;BME280;69904;52.122;5.422;2023-11-21T05:37:27;101363.56;;;7.90;96.08
80186;BME280;69904;52.122;5.422;2023-11-21T05:39:54;101369.78;;;7.90;96.42
80186;BME280;69904;52.122;5.422;2023-11-21T05:42:23;101369.59;;;7.92;96.23
80186;BME280;69904;52.122;5.422;2023-11-21T05:44:49;101368.75;;;7.91;96.50
80186;BME280;69904;52.122;5.422;2023-11-21T05:47:16;101380.19;;;7.93;96.40
80186;BME280;69904;52.122;5.422;2023-11-21T05:49:43;101381.50;;;7.97;96.24
80186;BME280;69904;52.122;5.422;2023-11-21T05:52:11;101379.50;;;7.99;96.44
80186;BME280;69904;52.122;5.422;2023-11-21T05:54:37;101377.66;;;8.00;96.68
80186;BME280;69904;52.122;5.422;2023-11-21T05:57:04;101389.06;;;8.02;96.68
80186;BME280;69904;52.122;5.422;2023-11-21T05:59:30;101396.28;;;8.01;96.53
80186;BME280;69904;52.122;5.422;2023-11-21T06:01:57;101400.84;;;8.01;96.52
80186;BME280;69904;52.122;5.422;2023-11-21T06:04:25;101393.59;;;8.01;96.83
80186;BME280;69904;52.122;5.422;2023-11-21T06:06:52;101396.47;;;8.00;96.37
80186;BME280;69904;52.122;5.422;2023-11-21T06:09:19;101401.84;;;8.00;96.87
80186;BME280;69904;52.122;5.422;2023-11-21T06:11:45;101410.75;;;8.00;96.85
80186;BME280;69904;52.122;5.422;2023-11-21T06:14:12;101416.97;;;8.01;96.63
80186;BME280;69904;52.122;5.422;2023-11-21T06:16:38;101418.47;;;8.03;97.04
80186;BME280;69904;52.122;5.422;2023-11-21T06:19:06;101420.47;;;8.01;96.74
80186;BME280;69904;52.122;5.422;2023-11-21T06:21:33;101423.00;;;8.03;97.06
80186;BME280;69904;52.122;5.422;2023-11-21T06:24:00;101418.47;;;8.03;97.15
80186;BME280;69904;52.122;5.422;2023-11-21T06:26:27;101428.22;;;8.04;97.27
80186;BME280;69904;52.122;5.422;2023-11-21T06:28:54;101425.03;;;8.09;97.40
80186;BME280;69904;52.122;5.422;2023-11-21T06:31:21;101424.88;;;8.11;97.45
80186;BME280;69904;52.122;5.422;2023-11-21T06:33:48;101425.72;;;8.11;97.41
80186;BME280;69904;52.122;5.422;2023-11-21T06:36:16;101428.22;;;8.13;97.37
80186;BME280;69904;52.122;5.422;2023-11-21T06:38:42;101434.97;;;8.17;97.70
80186;BME280;69904;52.122;5.422;2023-11-21T06:41:09;101433.78;;;8.19;97.73
80186;BME280;69904;52.122;5.422;2023-11-21T06:43:35;101432.78;;;8.20;97.40
80186;BME280;69904;52.122;5.422;2023-11-21T06:46:02;101437.81;;;8.23;97.36
80186;BME280;69904;52.122;5.422;2023-11-21T06:48:30;101438.47;;;8.25;97.43
80186;BME280;69904;52.122;5.422;2023-11-21T06:50:57;101442.19;;;8.24;97.48
80186;BME280;69904;52.122;5.422;2023-11-21T06:53:23;101446.41;;;8.27;97.59
80186;BME280;69904;52.122;5.422;2023-11-21T06:55:51;101454.28;;;8.28;97.48
80186;BME280;69904;52.122;5.422;2023-11-21T06:58:17;101457.69;;;8.30;97.84
80186;BME280;69904;52.122;5.422;2023-11-21T07:00:43;101455.69;;;8.32;97.71
80186;BME280;69904;52.122;5.422;2023-11-21T07:03:13;101453.81;;;8.33;97.98
80186;BME280;69904;52.122;5.422;2023-11-21T07:05:39;101458.00;;;8.35;98.16
80186;BME280;69904;52.122;5.422;2023-11-21T07:08:06;101468.47;;;8.38;97.80
80186;BME280;69904;52.122;5.422;2023-11-21T07:10:35;101473.47;;;8.41;97.86
80186;BME280;69904;52.122;5.422;2023-11-21T07:13:03;101475.16;;;8.42;98.19
80186;BME280;69904;52.122;5.422;2023-11-21T07:15:29;101478.34;;;8.46;98.27
80186;BME280;69904;52.122;5.422;2023-11-21T07:17:56;101483.56;;;8.48;98.34
80186;BME280;69904;52.122;5.422;2023-11-21T07:20:22;101484.06;;;8.51;98.05
80186;BME280;69904;52.122;5.422;2023-11-21T07:22:49;101491.13;;;8.52;98.61
80186;BME280;69904;52.122;5.422;2023-11-21T07:25:16;101498.03;;;8.55;98.30
80186;BME280;69904;52.122;5.422;2023-11-21T07:27:43;101498.84;;;8.55;98.39
80186;BME280;69904;52.122;5.422;2023-11-21T07:30:10;101503.06;;;8.58;98.57
80186;BME280;69904;52.122;5.422;2023-11-21T07:32:37;101508.94;;;8.61;98.69
80186;BME280;69904;52.122;5.422;2023-11-21T07:35:07;101503.25;;;8.64;98.91
80186;BME280;69904;52.122;5.422;2023-11-21T07:37:34;101504.94;;;8.65;98.85
80186;BME280;69904;52.122;5.422;2023-11-21T07:40:01;101504.75;;;8.67;98.97
80186;BME280;69904;52.122;5.422;2023-11-21T07:42:27;101509.97;;;8.68;98.86
80186;BME280;69904;52.122;5.422;2023-11-21T07:44:53;101505.44;;;8.69;99.05
80186;BME280;69904;52.122;5.422;2023-11-21T07:47:20;101508.78;;;8.71;99.18
80186;BME280;69904;52.122;5.422;2023-11-21T07:49:47;101515.84;;;8.72;99.24
80186;BME280;69904;52.122;5.422;2023-11-21T07:52:13;101520.06;;;8.74;99.06
80186;BME280;69904;52.122;5.422;2023-11-21T07:54:42;101531.47;;;8.76;99.24
80186;BME280;69904;52.122;5.422;2023-11-21T07:57:09;101533.16;;;8.77;99.39
80186;BME280;69904;52.122;5.422;2023-11-21T07:59:40;101535.69;;;8.79;99.20
80186;BME280;69904;52.122;5.422;2023-11-21T08:02:07;101542.56;;;8.81;99.28
80186;BME280;69904;52.122;5.422;2023-11-21T08:04:34;101546.63;;;8.85;99.45
80186;BME280;69904;52.122;5.422;2023-11-21T08:07:02;101558.75;;;8.90;99.43
80186;BME280;69904;52.122;5.422;2023-11-21T08:09:30;101553.84;;;8.93;99.40
80186;BME280;69904;52.122;5.422;2023-11-21T08:11:56;101558.22;;;8.94;99.44
80186;BME280;69904;52.122;5.422;2023-11-21T08:14:23;101558.91;;;8.96;99.42
80186;BME280;69904;52.122;5.422;2023-11-21T08:16:51;101566.47;;;9.01;99.76
80186;BME280;69904;52.122;5.422;2023-11-21T08:19:18;101582.47;;;9.02;99.58
80186;BME280;69904;52.122;5.422;2023-11-21T08:21:45;101584.81;;;9.05;99.77
80186;BME280;69904;52.122;5.422;2023-11-21T08:24:12;101594.22;;;9.09;99.51
80186;BME280;69904;52.122;5.422;2023-11-21T08:26:38;101591.38;;;9.11;99.84
80186;BME280;69904;52.122;5.422;2023-11-21T08:29:04;101588.50;;;9.12;99.66
80186;BME280;69904;52.122;5.422;2023-11-21T08:31:33;101594.38;;;9.16;99.94
80186;BME280;69904;52.122;5.422;2023-11-21T08:34:00;101597.75;;;9.18;99.84
80186;BME280;69904;52.122;5.422;2023-11-21T08:36:29;101599.63;;;9.17;100.00
80186;BME280;69904;52.122;5.422;2023-11-21T08:38:58;101613.09;;;9.17;99.88
80186;BME280;69904;52.122;5.422;2023-11-21T08:41:24;101625.53;;;9.18;100.00
80186;BME280;69904;52.122;5.422;2023-11-21T08:43:51;101625.53;;;9.18;100.00
80186;BME280;69904;52.122;5.422;2023-11-21T08:46:18;101630.75;;;9.20;99.98
80186;BME280;69904;52.122;5.422;2023-11-21T08:48:46;101626.03;;;9.22;100.00
80186;BME280;69904;52.122;5.422;2023-11-21T08:51:12;101635.59;;;9.24;100.00
80186;BME280;69904;52.122;5.422;2023-11-21T08:53:40;101633.59;;;9.26;100.00
80186;BME280;69904;52.122;5.422;2023-11-21T08:56:07;101636.28;;;9.26;100.00
80186;BME280;69904;52.122;5.422;2023-11-21T08:58:35;101641.34;;;9.29;100.00
80186;BME280;69904;52.122;5.422;2023-11-21T09:01:04;101635.94;;;9.29;100.00
80186;BME280;69904;52.122;5.422;2023-11-21T09:03:31;101634.94;;;9.30;100.00
80186;BME280;69904;52.122;5.422;2023-11-21T09:06:00;101632.41;;;9.37;100.00
80186;BME280;69904;52.122;5.422;2023-11-21T09:08:27;101642.16;;;9.46;100.00
80186;BME280;69904;52.122;5.422;2023-11-21T09:10:55;101655.63;;;9.54;100.00
80186;BME280;69904;52.122;5.422;2023-11-21T09:13:22;101670.28;;;9.60;100.00
80186;BME280;69904;52.122;5.422;2023-11-21T09:15:51;101675.50;;;9.61;100.00
80186;BME280;69904;52.122;5.422;2023-11-21T09:18:18;101675.50;;;9.61;100.00
80186;BME280;69904;52.122;5.422;2023-11-21T09:20:45;101679.38;;;9.59;100.00
80186;BME280;69904;52.122;5.422;2023-11-21T09:23:11;101673.28;;;9.57;100.00
80186;BME280;69904;52.122;5.422;2023-11-21T09:25:38;101676.19;;;9.55;100.00
80186;BME280;69904;52.122;5.422;2023-11-21T09:28:05;101675.16;;;9.56;100.00
80186;BME280;69904;52.122;5.422;2023-11-21T09:30:34;101686.78;;;9.57;100.00
80186;BME280;69904;52.122;5.422;2023-11-21T09:33:02;101686.78;;;9.57;100.00
80186;BME280;69904;52.122;5.422;2023-11-21T09:35:29;101699.41;;;9.56;100.00
80186;BME280;69904;52.122;5.422;2023-11-21T09:37:55;101699.41;;;9.56;100.00
80186;BME280;69904;52.122;5.422;2023-11-21T09:40:22;101705.84;;;9.55;100.00
80186;BME280;69904;52.122;5.422;2023-11-21T09:42:56;101712.06;;;9.56;100.00
80186;BME280;69904;52.122;5.422;2023-11-21T09:45:34;101710.38;;;9.55;100.00
80186;BME280;69904;52.122;5.422;2023-11-21T09:48:01;101729.25;;;9.55;99.84
80186;BME280;69904;52.122;5.422;2023-11-21T09:50:29;101725.38;;;9.49;100.00
80186;BME280;69904;52.122;5.422;2023-11-21T09:53:18;101732.75;;;9.47;100.00
80186;BME280;69904;52.122;5.422;2023-11-21T09:55:49;101733.78;;;9.46;100.00
80186;BME280;69904;52.122;5.422;2023-11-21T09:58:18;101732.75;;;9.47;100.00
80186;BME280;69904;52.122;5.422;2023-11-21T10:00:46;101738.16;;;9.47;100.00
80186;BME280;69904;52.122;5.422;2023-11-21T10:03:13;101736.47;;;9.46;99.75
80186;BME280;69904;52.122;5.422;2023-11-21T10:05:44;101745.22;;;9.48;100.00
80186;BME280;69904;52.122;5.422;2023-11-21T10:08:13;101747.09;;;9.48;99.88
80186;BME280;69904;52.122;5.422;2023-11-21T10:10:43;101747.94;;;9.48;99.74
80186;BME280;69904;52.122;5.422;2023-11-21T10:13:12;101747.25;;;9.46;99.53
80186;BME280;69904;52.122;5.422;2023-11-21T10:15:40;101749.09;;;9.46;99.38
80186;BME280;69904;52.122;5.422;2023-11-21T10:18:11;101758.88;;;9.47;99.58
80186;BME280;69904;52.122;5.422;2023-11-21T10:20:37;101762.56;;;9.46;99.31
80186;BME280;69904;52.122;5.422;2023-11-21T10:23:04;101770.31;;;9.49;99.16
80186;BME280;69904;52.122;5.422;2023-11-21T10:25:33;101777.22;;;9.51;99.38
80186;BME280;69904;52.122;5.422;2023-11-21T10:28:04;101782.13;;;9.56;99.10
80186;BME280;69904;52.122;5.422;2023-11-21T10:30:38;101784.31;;;9.60;98.95
80186;BME280;69904;52.122;5.422;2023-11-21T10:33:05;101789.50;;;9.62;98.65
80186;BME280;69904;52.122;5.422;2023-11-21T10:38:08;101788.34;;;9.64;98.64
80186;BME280;69904;52.122;5.422;2023-11-21T10:40:43;101795.75;;;9.62;98.17
80186;BME280;69904;52.122;5.422;2023-11-21T10:43:13;101811.44;;;9.59;97.98
80186;BME280;69904;52.122;5.422;2023-11-21T10:45:42;101804.50;;;9.56;98.28
80186;BME280;69904;52.122;5.422;2023-11-21T10:48:11;101820.66;;;9.56;97.84
80186;BME280;69904;52.122;5.422;2023-11-21T10:50:38;101832.81;;;9.52;98.08
80186;BME280;69904;52.122;5.422;2023-11-21T10:53:05;101832.31;;;9.49;97.95
80186;BME280;69904;52.122;5.422;2023-11-21T10:55:33;101841.38;;;9.48;97.72
80186;BME280;69904;52.122;5.422;2023-11-21T10:58:01;101848.47;;;9.49;97.66
80186;BME280;69904;52.122;5.422;2023-11-21T11:00:29;101836.84;;;9.48;97.38
80186;BME280;69904;52.122;5.422;2023-11-21T11:02:56;101843.09;;;9.49;97.08
80186;BME280;69904;52.122;5.422;2023-11-21T11:05:23;101850.31;;;9.48;96.96
80186;BME280;69904;52.122;5.422;2023-11-21T11:07:51;101849.16;;;9.51;97.08
80186;BME280;69904;52.122;5.422;2023-11-21T11:10:26;101854.38;;;9.52;97.06
80186;BME280;69904;52.122;5.422;2023-11-21T11:12:54;101842.56;;;9.53;96.83
80186;BME280;69904;52.122;5.422;2023-11-21T11:15:21;101845.97;;;9.55;96.78
80186;BME280;69904;52.122;5.422;2023-11-21T11:17:48;101851.16;;;9.57;97.15
80186;BME280;69904;52.122;5.422;2023-11-21T11:20:16;101849.31;;;9.57;96.90
80186;BME280;69904;52.122;5.422;2023-11-21T11:22:54;101847.47;;;9.58;97.27
80186;BME280;69904;52.122;5.422;2023-11-21T11:25:45;101849.50;;;9.56;96.95
80186;BME280;69904;52.122;5.422;2023-11-21T11:28:21;101857.91;;;9.53;96.86
80186;BME280;69904;52.122;5.422;2023-11-21T11:31:02;101862.63;;;9.51;96.79
80186;BME280;69904;52.122;5.422;2023-11-21T11:36:05;101860.44;;;9.54;96.66
80186;BME280;69904;52.122;5.422;2023-11-21T11:38:34;101865.69;;;9.56;96.85
80186;BME280;69904;52.122;5.422;2023-11-21T11:41:03;101862.28;;;9.62;96.66
80186;BME280;69904;52.122;5.422;2023-11-21T11:43:30;101860.13;;;9.65;96.76
80186;BME280;69904;52.122;5.422;2023-11-21T11:45:59;101870.72;;;9.67;96.81
80186;BME280;69904;52.122;5.422;2023-11-21T11:48:29;101862.47;;;9.68;96.75
80186;BME280;69904;52.122;5.422;2023-11-21T11:51:13;101875.44;;;9.65;96.47
80186;BME280;69904;52.122;5.422;2023-11-21T11:53:48;101881.34;;;9.60;96.79
80186;BME280;69904;52.122;5.422;2023-11-21T11:56:26;101882.19;;;9.61;96.56
80186;BME280;69904;52.122;5.422;2023-11-21T11:58:55;101884.53;;;9.64;96.51
80186;BME280;69904;52.122;5.422;2023-11-21T12:01:24;101889.94;;;9.64;96.29
80186;BME280;69904;52.122;5.422;2023-11-21T12:04:29;101894.81;;;9.68;96.76
80186;BME280;69904;52.122;5.422;2023-11-21T12:07:01;101900.38;;;9.67;96.36
80186;BME280;69904;52.122;5.422;2023-11-21T12:09:31;101898.88;;;9.64;96.41
80186;BME280;69904;52.122;5.422;2023-11-21T12:11:58;101907.44;;;9.68;96.38
80186;BME280;69904;52.122;5.422;2023-11-21T12:14:25;101904.75;;;9.68;96.53
80186;BME280;69904;52.122;5.422;2023-11-21T12:16:52;101906.44;;;9.69;96.47
80186;BME280;69904;52.122;5.422;2023-11-21T12:19:19;101915.22;;;9.71;96.57
80186;BME280;69904;52.122;5.422;2023-11-21T12:21:47;101910.84;;;9.70;96.20
80186;BME280;69904;52.122;5.422;2023-11-21T12:24:15;101913.38;;;9.71;96.24
80186;BME280;69904;52.122;5.422;2023-11-21T12:26:43;101910.69;;;9.71;96.42
80186;BME280;69904;52.122;5.422;2023-11-21T12:29:10;101924.81;;;9.73;96.13
80186;BME280;69904;52.122;5.422;2023-11-21T12:31:37;101916.06;;;9.71;96.08
80186;BME280;69904;52.122;5.422;2023-11-21T12:34:04;101921.47;;;9.71;96.14
80186;BME280;69904;52.122;5.422;2023-11-21T12:36:31;101919.06;;;9.68;95.92
80186;BME280;69904;52.122;5.422;2023-11-21T12:38:58;101912.34;;;9.64;96.30
80186;BME280;69904;52.122;5.422;2023-11-21T12:41:24;101921.94;;;9.67;95.94
80186;BME280;69904;52.122;5.422;2023-11-21T12:43:51;101921.13;;;9.66;96.15
80186;BME280;69904;52.122;5.422;2023-11-21T12:46:18;101929.19;;;9.66;96.17
80186;BME280;69904;52.122;5.422;2023-11-21T12:48:46;101936.59;;;9.64;96.08
80186;BME280;69904;52.122;5.422;2023-11-21T12:51:13;101932.56;;;9.60;95.89
80186;BME280;69904;52.122;5.422;2023-11-21T12:53:41;101938.09;;;9.59;95.87
80186;BME280;69904;52.122;5.422;2023-11-21T12:56:11;101938.09;;;9.59;95.56
80186;BME280;69904;52.122;5.422;2023-11-21T12:58:39;101950.56;;;9.60;95.63
80186;BME280;69904;52.122;5.422;2023-11-21T13:01:12;101948.72;;;9.60;95.48
80186;BME280;69904;52.122;5.422;2023-11-21T13:03:48;101955.63;;;9.63;95.66
80186;BME280;69904;52.122;5.422;2023-11-21T13:06:15;101960.50;;;9.67;95.74
80186;BME280;69904;52.122;5.422;2023-11-21T13:08:44;101956.16;;;9.75;95.54